Yale, Oklahoma
Current Conditions -  °F | °C
As of 3:35 PM on Monday 24 Nov 2014 (Local Time) from KCUH Reporting Station
Clear Clear  
Wind Chill: 55°   Ceiling: Unl
Heat Index: 55°   Visibility: 10mi
Dew Point: 30°   Wind: 16mph
Humidity: 38%   Direction: 300°WNW
Pressure: 29.98"   Gusts: 22mph
Location:  36.11°N, 96.7°W
Report Text: KCUH 242135Z AUTO 30014G19KT 10SM CLR 13/M01 A2998 RMK AO2
Loading
Personal Weather Stations






























Interactive Weather Map New forecast layout! Learn more

10-Day Weather Forecast

Advertisements
Track Severe Weather on mobile